Time;durP1;ratioP1;P1;durP2;ratioP2;P2;SDS_P1;SDS_P2;PMS_P1;PMS_P2;Temp;Humidity;BMP_temperature;BMP_pressure;BME280_temperature;BME280_humidity;BME280_pressure;Samples;Min_cycle;Max_cycle;Signal;HPM_P1;HPM_P2
2023/04/03 00:00:51;;;;;;;5.03;1.30;;;0.70;99.90;;;;;;5011468;28;20234;-61
2023/04/03 00:03:18;;;;;;;3.73;1.10;;;0.70;99.90;;;;;;5012572;28;20192;-54
2023/04/03 00:05:45;;;;;;;2.00;0.83;;;0.70;99.90;;;;;;5019376;28;20273;-57
2023/04/03 00:08:13;;;;;;;4.00;1.27;;;0.80;99.90;;;;;;4994361;28;20292;-56
2023/04/03 00:10:41;;;;;;;5.57;1.20;;;0.70;99.90;;;;;;5013960;28;20233;-50
2023/04/03 00:13:08;;;;;;;3.37;1.10;;;0.70;99.90;;;;;;5014568;28;20196;-50
2023/04/03 00:15:36;;;;;;;7.63;1.40;;;0.70;99.90;;;;;;5019088;28;20560;-50
2023/04/03 00:18:05;;;;;;;3.33;1.30;;;0.60;99.90;;;;;;5002758;28;20260;-53
2023/04/03 00:20:32;;;;;;;4.63;1.30;;;0.70;99.90;;;;;;5011991;28;20221;-53
2023/04/03 00:22:59;;;;;;;1.77;0.80;;;0.70;99.90;;;;;;4996506;28;20596;-58
2023/04/03 00:25:28;;;;;;;3.60;1.03;;;0.60;99.90;;;;;;5011581;28;20204;-50
2023/04/03 00:27:56;;;;;;;3.73;1.27;;;0.70;99.90;;;;;;5009320;28;20205;-58
2023/04/03 00:30:24;;;;;;;2.43;0.87;;;0.70;99.90;;;;;;5015167;28;20199;-52
2023/04/03 00:32:51;;;;;;;3.10;1.07;;;0.50;99.90;;;;;;5000267;28;20208;-58
2023/04/03 00:35:21;;;;;;;3.50;1.20;;;0.60;99.90;;;;;;5015918;28;20287;-50
2023/04/03 00:37:48;;;;;;;5.80;1.30;;;0.60;99.90;;;;;;4996187;28;20208;-58
2023/04/03 00:40:16;;;;;;;4.53;1.13;;;0.60;99.90;;;;;;5021852;28;20246;-50
2023/04/03 00:42:46;;;;;;;1.47;0.93;;;0.50;99.90;;;;;;5010770;28;20682;-51
2023/04/03 00:45:30;;;;;;;1.83;1.20;;;0.50;99.90;;;;;;5002525;28;20208;-50
2023/04/03 00:48:00;;;;;;;1.93;0.90;;;0.50;99.90;;;;;;5004886;28;20211;-59
2023/04/03 00:50:28;;;;;;;1.47;0.77;;;0.60;99.90;;;;;;5018219;28;20215;-53
2023/04/03 00:52:56;;;;;;;4.13;1.23;;;0.50;99.90;;;;;;4995339;28;20273;-60
2023/04/03 00:55:23;;;;;;;4.90;1.00;;;0.60;99.90;;;;;;5027406;28;20424;-58
2023/04/03 00:57:53;;;;;;;3.63;1.40;;;0.40;99.90;;;;;;5000789;28;20875;-57
2023/04/03 01:00:22;;;;;;;4.50;1.57;;;0.50;99.90;;;;;;5011513;28;20224;-50
2023/04/03 01:02:49;;;;;;;5.00;1.40;;;0.40;99.90;;;;;;5005685;28;20264;-59
2023/04/03 01:05:18;;;;;;;2.57;1.03;;;0.30;99.90;;;;;;5007460;28;20230;-54
2023/04/03 01:07:46;;;;;;;1.87;1.37;;;0.50;99.90;;;;;;4993159;28;22214;-57
2023/04/03 01:10:35;;;;;;;7.13;1.07;;;0.40;99.90;;;;;;5007182;28;20230;-59
2023/04/03 01:13:19;;;;;;;1.67;0.90;;;0.30;99.90;;;;;;5010210;28;20250;-49
2023/04/03 01:15:47;;;;;;;1.90;0.87;;;0.50;99.90;;;;;;5010627;28;20834;-49
2023/04/03 01:18:14;;;;;;;2.47;1.30;;;0.40;99.90;;;;;;5015986;28;20222;-50
2023/04/03 01:21:17;;;;;;;5.67;1.50;;;0.40;99.90;;;;;;4994108;28;20677;-56
2023/04/03 01:23:59;;;;;;;2.27;1.27;;;0.40;99.90;;;;;;4990083;28;20887;-50
2023/04/03 01:26:28;;;;;;;5.53;1.43;;;0.30;99.90;;;;;;5013681;28;20270;-59
2023/04/03 01:28:56;;;;;;;2.40;1.47;;;0.30;99.90;;;;;;5004155;28;20215;-48
2023/04/03 01:31:27;;;;;;;3.43;1.10;;;0.20;99.90;;;;;;5047618;28;20555;-54
2023/04/03 01:33:57;;;;;;;2.60;1.00;;;0.20;99.90;;;;;;5000351;28;20211;-52
2023/04/03 01:36:27;;;;;;;3.90;1.10;;;0.30;99.90;;;;;;5018910;28;20208;-57
2023/04/03 01:38:55;;;;;;;3.27;1.50;;;0.30;99.90;;;;;;4996684;28;20216;-52
2023/04/03 01:41:23;;;;;;;2.53;1.20;;;0.30;99.90;;;;;;5023851;28;20227;-48
2023/04/03 01:43:52;;;;;;;4.47;1.47;;;0.30;99.90;;;;;;5009691;28;20214;-55
2023/04/03 01:46:20;;;;;;;3.07;1.20;;;0.20;99.90;;;;;;5013764;28;20978;-50
2023/04/03 01:48:47;;;;;;;3.00;1.53;;;0.20;99.90;;;;;;5007559;28;20295;-55
2023/04/03 01:51:16;;;;;;;2.97;1.30;;;0.20;99.90;;;;;;5016750;28;20222;-51
2023/04/03 01:53:42;;;;;;;4.47;1.50;;;0.20;99.90;;;;;;5017590;28;20206;-60
2023/04/03 01:56:09;;;;;;;4.10;1.33;;;-0.10;99.90;;;;;;4994419;28;20205;-57
2023/04/03 01:58:36;;;;;;;3.17;1.60;;;0.30;99.90;;;;;;5021658;28;20238;-58
2023/04/03 02:01:04;;;;;;;3.80;1.07;;;0.10;99.90;;;;;;5012825;28;20227;-48
2023/04/03 02:03:31;;;;;;;3.33;1.27;;;-0.10;99.90;;;;;;5016481;28;20238;-58
2023/04/03 02:05:59;;;;;;;5.07;1.30;;;0.00;99.90;;;;;;5006791;28;20211;-50
2023/04/03 02:08:28;;;;;;;2.30;1.20;;;0.20;99.90;;;;;;5008781;28;20196;-59
2023/04/03 02:10:55;;;;;;;5.83;1.40;;;-0.10;99.90;;;;;;5012172;28;20235;-48
2023/04/03 02:13:21;;;;;;;2.30;1.30;;;0.30;99.90;;;;;;5016224;28;20214;-51
2023/04/03 02:15:49;;;;;;;2.40;1.07;;;0.10;99.90;;;;;;5017293;28;20206;-52
2023/04/03 02:18:17;;;;;;;4.43;1.50;;;-0.10;99.90;;;;;;5015451;28;20203;-48
2023/04/03 02:20:44;;;;;;;2.87;1.17;;;-0.20;99.90;;;;;;5000467;28;20222;-56
2023/04/03 02:23:11;;;;;;;4.13;1.50;;;-0.20;99.90;;;;;;5017386;28;20674;-54
2023/04/03 02:25:39;;;;;;;5.37;1.60;;;-0.10;99.90;;;;;;4999817;28;20192;-59
2023/04/03 02:28:06;;;;;;;5.23;1.50;;;-0.20;99.90;;;;;;5023540;28;20210;-48
2023/04/03 02:30:33;;;;;;;6.17;1.50;;;-0.20;99.90;;;;;;5007854;28;20216;-57
2023/04/03 02:33:00;;;;;;;3.27;1.60;;;-0.10;99.90;;;;;;5011945;28;20198;-47
2023/04/03 02:35:27;;;;;;;5.87;1.77;;;-0.20;99.90;;;;;;5012105;28;20834;-60
2023/04/03 02:37:57;;;;;;;2.07;1.70;;;0.10;99.90;;;;;;5029698;28;20238;-48
2023/04/03 02:40:25;;;;;;;3.30;1.50;;;0.10;99.90;;;;;;5018261;28;20780;-60
2023/04/03 02:42:53;;;;;;;2.00;1.13;;;0.00;99.90;;;;;;5008126;28;20891;-55
2023/04/03 02:45:21;;;;;;;5.93;1.30;;;-0.20;99.90;;;;;;5018046;28;20254;-48
2023/04/03 02:47:49;;;;;;;5.47;1.67;;;-0.20;99.90;;;;;;5008528;28;20207;-48
2023/04/03 02:50:16;;;;;;;2.33;1.30;;;-0.10;99.90;;;;;;5018254;28;20288;-53
2023/04/03 02:52:43;;;;;;;5.30;1.93;;;0.00;99.90;;;;;;5003608;28;20666;-57
2023/04/03 02:55:14;;;;;;;4.43;1.63;;;-0.10;99.90;;;;;;5015933;28;20200;-55
2023/04/03 02:57:43;;;;;;;2.67;1.60;;;0.00;99.90;;;;;;4992063;28;20207;-59
2023/04/03 03:00:12;;;;;;;3.37;1.20;;;-0.10;99.90;;;;;;5015959;28;20312;-49
2023/04/03 03:02:39;;;;;;;3.80;2.27;;;-0.10;99.90;;;;;;5004459;28;20211;-58
2023/04/03 03:05:07;;;;;;;4.37;1.60;;;-0.10;99.90;;;;;;5019721;28;20208;-53
2023/04/03 03:07:35;;;;;;;3.33;1.43;;;-0.10;99.90;;;;;;4995109;28;20217;-59
2023/04/03 03:10:02;;;;;;;6.10;1.60;;;-0.10;99.90;;;;;;5016232;28;20218;-54
2023/04/03 03:12:29;;;;;;;3.10;1.53;;;-0.10;99.90;;;;;;5006566;28;20201;-61
2023/04/03 03:14:56;;;;;;;5.80;2.07;;;-0.10;99.90;;;;;;5007164;28;20209;-48
2023/04/03 03:17:46;;;;;;;3.03;1.20;;;-0.10;99.90;;;;;;5008120;28;20424;-52
2023/04/03 03:20:15;;;;;;;5.77;1.63;;;-0.10;99.90;;;;;;5006071;28;20318;-56
2023/04/03 03:22:41;;;;;;;3.90;1.33;;;-0.20;99.90;;;;;;5007036;28;20282;-58
2023/04/03 03:25:09;;;;;;;3.63;1.80;;;-0.20;99.90;;;;;;5011342;28;20309;-48
2023/04/03 03:27:37;;;;;;;1.70;1.40;;;-0.10;99.90;;;;;;5003089;28;20243;-59
2023/04/03 03:30:05;;;;;;;3.97;1.50;;;-0.20;99.90;;;;;;5006296;28;20223;-52
2023/04/03 03:32:33;;;;;;;2.00;1.27;;;-0.10;99.90;;;;;;5006293;28;20251;-60
2023/04/03 03:35:01;;;;;;;6.60;1.50;;;-0.20;99.90;;;;;;5009252;28;20823;-54
2023/04/03 03:37:28;;;;;;;5.53;1.60;;;-0.20;99.90;;;;;;5007140;28;20206;-59
2023/04/03 03:39:55;;;;;;;5.13;1.80;;;-0.20;99.90;;;;;;5010884;28;20963;-47
2023/04/03 03:42:22;;;;;;;3.07;1.10;;;-0.20;99.90;;;;;;5014323;28;20210;-52
2023/04/03 03:44:51;;;;;;;5.10;1.47;;;-0.30;99.90;;;;;;4991718;28;20986;-55
2023/04/03 03:47:20;;;;;;;4.43;1.27;;;-0.30;99.90;;;;;;5017289;28;20207;-52
2023/04/03 03:49:46;;;;;;;5.77;2.00;;;-0.10;99.90;;;;;;5006886;28;20314;-52
2023/04/03 03:52:16;;;;;;;7.20;1.73;;;-0.40;99.90;;;;;;5009023;28;20268;-52
2023/04/03 03:54:44;;;;;;;4.07;1.90;;;-0.30;99.90;;;;;;5015846;28;20980;-55
2023/04/03 03:57:11;;;;;;;3.93;1.53;;;-0.30;99.90;;;;;;5012138;28;20200;-49
2023/04/03 03:59:40;;;;;;;4.53;1.50;;;-0.30;99.90;;;;;;4998052;28;20237;-59
2023/04/03 04:02:07;;;;;;;5.50;1.80;;;-0.30;99.90;;;;;;5021051;28;20205;-50
2023/04/03 04:04:34;;;;;;;4.90;2.07;;;-0.40;99.90;;;;;;5000319;28;20211;-58
2023/04/03 04:07:02;;;;;;;3.13;1.90;;;-0.40;99.90;;;;;;5014197;28;20253;-56
2023/04/03 04:09:32;;;;;;;3.97;1.50;;;-0.40;99.90;;;;;;4997157;28;20227;-58
2023/04/03 04:12:21;;;;;;;3.40;1.23;;;-0.40;99.90;;;;;;5022393;28;20201;-58
2023/04/03 04:14:49;;;;;;;2.37;1.23;;;-0.30;99.90;;;;;;4996709;28;20213;-50
2023/04/03 04:17:17;;;;;;;17.17;6.63;;;-0.30;99.90;;;;;;5019515;28;20198;-53
2023/04/03 04:19:44;;;;;;;3.17;1.90;;;-0.60;99.90;;;;;;5001112;28;20960;-52
2023/04/03 04:22:32;;;;;;;3.17;1.63;;;-0.40;99.90;;;;;;5010186;28;20214;-57
2023/04/03 04:25:01;;;;;;;4.77;1.50;;;-0.60;99.90;;;;;;5003237;28;20204;-48
2023/04/03 04:27:29;;;;;;;5.27;1.80;;;-0.40;99.90;;;;;;5012047;28;20201;-59
2023/04/03 04:29:56;;;;;;;5.73;1.87;;;-0.40;99.90;;;;;;5001693;28;20233;-51
2023/04/03 04:32:23;;;;;;;5.00;1.50;;;-0.60;99.90;;;;;;4998197;28;20217;-56
2023/04/03 04:34:50;;;;;;;3.47;1.00;;;-0.10;99.90;;;;;;5006984;28;20208;-58
2023/04/03 04:37:18;;;;;;;6.17;1.60;;;-0.60;99.90;;;;;;5032980;28;20267;-50
2023/04/03 04:39:47;;;;;;;4.00;1.73;;;-0.50;99.90;;;;;;5004226;28;20231;-59
2023/04/03 04:42:15;;;;;;;2.00;1.50;;;-0.50;99.90;;;;;;5000331;28;20325;-52
2023/04/03 04:44:42;;;;;;;3.63;1.60;;;-0.50;99.90;;;;;;5008217;28;20214;-60
2023/04/03 04:47:09;;;;;;;5.73;1.40;;;-0.50;99.90;;;;;;5002348;28;20199;-51
2023/04/03 04:49:35;;;;;;;6.90;2.23;;;-0.50;99.90;;;;;;5014101;28;20217;-51
2023/04/03 04:52:03;;;;;;;5.33;1.80;;;-0.50;99.90;;;;;;5002449;28;20272;-52
2023/04/03 04:54:32;;;;;;;5.77;1.50;;;-0.50;99.90;;;;;;5003152;28;20209;-57
2023/04/03 04:56:59;;;;;;;6.40;2.20;;;-0.50;99.90;;;;;;5009747;28;20215;-58
2023/04/03 04:59:28;;;;;;;6.57;2.13;;;-0.50;99.90;;;;;;5017111;28;20227;-48
2023/04/03 05:01:58;;;;;;;5.47;2.00;;;-0.50;99.90;;;;;;4997393;28;20315;-58
2023/04/03 05:04:26;;;;;;;11.37;2.57;;;-0.50;99.90;;;;;;5020361;28;20736;-53
2023/04/03 05:06:59;;;;;;;2.83;1.80;;;-0.50;99.90;;;;;;5003714;28;20225;-61
2023/04/03 05:09:28;;;;;;;5.47;1.73;;;-0.50;99.90;;;;;;5010024;28;20224;-54
2023/04/03 05:11:56;;;;;;;7.77;1.73;;;-0.50;99.90;;;;;;5006388;28;20191;-57
2023/04/03 05:14:28;;;;;;;3.93;1.80;;;-0.50;99.90;;;;;;5017646;28;20255;-52
2023/04/03 05:16:59;;;;;;;9.10;2.40;;;-0.50;99.90;;;;;;4994729;28;20221;-56
2023/04/03 05:19:29;;;;;;;6.63;2.77;;;-0.50;99.90;;;;;;5016571;28;20864;-52
2023/04/03 05:21:58;;;;;;;3.77;2.20;;;-0.50;99.90;;;;;;5003702;28;20623;-60
2023/04/03 05:24:26;;;;;;;3.63;1.90;;;-0.50;99.90;;;;;;5036932;28;20205;-49
2023/04/03 05:26:54;;;;;;;4.60;1.90;;;-0.40;99.90;;;;;;5009390;28;20231;-57
2023/04/03 05:29:21;;;;;;;3.33;1.80;;;-0.40;99.90;;;;;;5021823;28;20271;-53
2023/04/03 05:31:51;;;;;;;2.57;1.70;;;-0.50;99.90;;;;;;4992922;28;20216;-51
2023/04/03 05:34:19;;;;;;;4.37;1.80;;;-0.40;99.90;;;;;;5022302;28;20888;-56
2023/04/03 05:36:48;;;;;;;1.83;1.50;;;-0.40;99.90;;;;;;5019640;28;20200;-55
2023/04/03 05:39:16;;;;;;;9.47;1.93;;;-0.40;99.90;;;;;;5010592;28;20307;-57
2023/04/03 05:41:45;;;;;;;7.93;2.23;;;-0.30;99.90;;;;;;5017046;28;20252;-51
2023/04/03 05:44:12;;;;;;;4.90;1.70;;;-0.30;99.90;;;;;;5002930;28;20206;-52
2023/04/03 05:46:42;;;;;;;6.23;1.90;;;-0.30;99.90;;;;;;5015124;28;20211;-53
2023/04/03 05:49:11;;;;;;;4.20;1.80;;;-0.20;99.90;;;;;;5005348;28;20212;-55
2023/04/03 05:51:40;;;;;;;4.37;1.83;;;-0.20;99.90;;;;;;5022460;28;20276;-55
2023/04/03 05:54:28;;;;;;;3.73;2.20;;;-0.20;99.90;;;;;;5014785;28;20205;-54
2023/04/03 05:57:08;;;;;;;2.40;1.93;;;-0.10;99.90;;;;;;5010748;28;20268;-53
2023/04/03 05:59:35;;;;;;;4.83;2.20;;;0.00;99.90;;;;;;5013019;28;20253;-56
2023/04/03 06:02:02;;;;;;;6.80;2.23;;;0.00;99.90;;;;;;5010040;28;20282;-56
2023/04/03 06:04:30;;;;;;;3.83;2.30;;;0.10;99.90;;;;;;5002150;28;20196;-54
2023/04/03 06:06:58;;;;;;;11.23;2.20;;;0.10;99.90;;;;;;5022015;28;20192;-57
2023/04/03 06:09:28;;;;;;;6.53;2.40;;;0.20;99.90;;;;;;5009799;28;20232;-53
2023/04/03 06:11:58;;;;;;;5.40;2.00;;;0.20;99.90;;;;;;5025913;28;20228;-57
2023/04/03 06:14:25;;;;;;;5.07;2.43;;;0.30;99.90;;;;;;5006692;28;20196;-55
2023/04/03 06:16:52;;;;;;;6.47;2.63;;;0.40;99.90;;;;;;5018882;28;20614;-55
2023/04/03 06:19:20;;;;;;;6.50;2.57;;;0.50;99.90;;;;;;5001319;28;20283;-55
2023/04/03 06:21:52;;;;;;;10.77;2.47;;;0.50;99.90;;;;;;5013865;28;20222;-54
2023/04/03 06:24:21;;;;;;;5.67;2.40;;;0.60;99.90;;;;;;5010481;28;20205;-55
2023/04/03 06:26:51;;;;;;;3.00;2.17;;;0.70;99.90;;;;;;5017557;28;20206;-53
2023/04/03 06:29:17;;;;;;;5.53;2.33;;;0.80;99.90;;;;;;5009611;28;20219;-58
2023/04/03 06:31:45;;;;;;;9.23;1.90;;;0.90;99.90;;;;;;5014735;28;20345;-53
2023/04/03 06:34:12;;;;;;;3.67;1.60;;;1.10;99.90;;;;;;4997881;28;20204;-56
2023/04/03 06:36:40;;;;;;;3.93;1.53;;;1.20;99.90;;;;;;5020254;28;20202;-52
2023/04/03 06:39:12;;;;;;;4.90;1.67;;;1.40;99.90;;;;;;5010912;28;20349;-54
2023/04/03 06:41:40;;;;;;;5.60;1.90;;;1.50;99.90;;;;;;5014372;28;20566;-50
2023/04/03 06:44:10;;;;;;;4.23;1.60;;;1.60;99.90;;;;;;5004515;28;20225;-54
2023/04/03 06:46:38;;;;;;;4.73;1.37;;;1.70;99.90;;;;;;5017580;28;20192;-55
2023/04/03 06:49:07;;;;;;;5.80;1.70;;;1.80;99.90;;;;;;4997851;28;20227;-57
2023/04/03 06:51:35;;;;;;;4.30;1.47;;;2.00;99.90;;;;;;5028118;28;20227;-56
2023/04/03 06:54:03;;;;;;;7.10;1.50;;;2.10;99.90;;;;;;5012713;28;20196;-56
2023/04/03 06:56:32;;;;;;;6.13;1.40;;;2.20;99.90;;;;;;5004497;28;20287;-57
2023/04/03 06:59:00;;;;;;;2.97;1.70;;;2.30;99.90;;;;;;5006925;28;20211;-55
2023/04/03 07:01:49;;;;;;;1.80;1.00;;;2.50;99.90;;;;;;5003323;28;20565;-53
2023/04/03 07:04:17;;;;;;;3.30;1.17;;;2.60;99.90;;;;;;4997730;28;20281;-57
2023/04/03 07:06:43;;;;;;;1.63;1.00;;;2.70;99.90;;;;;;5013973;28;20897;-52
2023/04/03 07:09:11;;;;;;;3.50;1.60;;;2.90;99.90;;;;;;5023453;28;20211;-57
2023/04/03 07:11:43;;;;;;;6.13;2.33;;;3.00;99.90;;;;;;5005522;28;20670;-54
2023/04/03 07:14:09;;;;;;;3.70;1.47;;;3.20;99.90;;;;;;5022548;28;20197;-57
2023/04/03 07:16:36;;;;;;;3.97;0.80;;;3.20;99.90;;;;;;5008022;28;20282;-54
2023/04/03 07:19:03;;;;;;;2.03;1.10;;;3.30;99.90;;;;;;4989721;28;20374;-57
2023/04/03 07:21:31;;;;;;;2.47;1.30;;;3.40;99.90;;;;;;5017099;28;20686;-56
2023/04/03 07:23:58;;;;;;;3.73;0.97;;;3.40;99.90;;;;;;5015010;28;20298;-58
2023/04/03 07:26:51;;;;;;;3.27;1.50;;;3.50;99.90;;;;;;5003502;28;20351;-54
2023/04/03 07:29:20;;;;;;;2.20;0.87;;;3.70;99.90;;;;;;5018152;28;20506;-56
2023/04/03 07:31:46;;;;;;;1.83;0.60;;;3.80;99.90;;;;;;4994446;28;20204;-55
2023/04/03 07:34:13;;;;;;;0.90;0.63;;;3.90;99.90;;;;;;5016178;28;20196;-58
2023/04/03 07:36:40;;;;;;;3.50;0.97;;;4.00;99.90;;;;;;4998876;28;20732;-54
2023/04/03 07:39:07;;;;;;;4.33;1.00;;;4.10;99.90;;;;;;5017261;28;20228;-57
2023/04/03 07:41:35;;;;;;;2.23;0.90;;;4.20;99.90;;;;;;5011966;28;20293;-54
2023/04/03 07:44:21;;;;;;;4.27;1.17;;;4.20;99.90;;;;;;5014558;28;20218;-57
2023/04/03 07:46:50;;;;;;;1.07;0.73;;;4.30;99.90;;;;;;4996393;28;20213;-55
2023/04/03 07:49:17;;;;;;;1.33;0.70;;;4.40;99.90;;;;;;5016223;28;20601;-58
2023/04/03 07:51:44;;;;;;;1.87;0.80;;;4.50;99.90;;;;;;4993496;28;20205;-54
2023/04/03 07:54:33;;;;;;;4.20;1.07;;;4.60;99.90;;;;;;5020507;28;20215;-55
2023/04/03 07:57:01;;;;;;;1.90;0.87;;;4.80;99.90;;;;;;5002548;28;20222;-58
2023/04/03 07:59:30;;;;;;;3.63;0.53;;;4.90;99.90;;;;;;5017494;28;20310;-58
2023/04/03 08:01:58;;;;;;;3.93;0.97;;;5.00;99.90;;;;;;4992294;28;20290;-57
2023/04/03 08:04:25;;;;;;;3.17;0.77;;;5.10;99.90;;;;;;5012846;28;20208;-58
2023/04/03 08:06:53;;;;;;;3.07;0.57;;;5.10;99.90;;;;;;4994323;28;20659;-53
2023/04/03 08:09:20;;;;;;;3.30;0.60;;;5.10;99.90;;;;;;5018438;28;20228;-58
2023/04/03 08:11:47;;;;;;;5.17;0.70;;;5.10;99.90;;;;;;5012423;28;20280;-54
2023/04/03 08:14:17;;;;;;;2.30;0.80;;;5.30;99.90;;;;;;5014250;28;20193;-56
2023/04/03 08:16:47;;;;;;;1.00;0.70;;;5.40;99.90;;;;;;5013611;28;20795;-55
2023/04/03 08:19:15;;;;;;;2.17;0.60;;;5.50;99.90;;;;;;5001759;28;21404;-55
2023/04/03 08:21:42;;;;;;;5.60;1.10;;;5.50;99.90;;;;;;5013962;28;20205;-54
2023/04/03 08:24:09;;;;;;;0.97;0.50;;;5.60;99.90;;;;;;4999726;28;20211;-58
2023/04/03 08:26:37;;;;;;;2.27;0.57;;;5.60;99.90;;;;;;5016836;28;20200;-55
2023/04/03 08:29:05;;;;;;;1.17;0.80;;;5.60;99.90;;;;;;5007815;28;20235;-57
2023/04/03 08:31:52;;;;;;;3.23;0.83;;;5.70;99.90;;;;;;5001798;28;20215;-53
2023/04/03 08:34:20;;;;;;;1.70;0.80;;;5.80;99.90;;;;;;5003675;28;20293;-58
2023/04/03 08:36:48;;;;;;;2.57;0.67;;;5.80;99.90;;;;;;5000532;28;20319;-54
2023/04/03 08:39:15;;;;;;;4.17;0.67;;;5.80;99.90;;;;;;4997008;28;20232;-55
2023/04/03 08:41:46;;;;;;;3.70;1.00;;;5.90;99.90;;;;;;5011329;28;20243;-50
2023/04/03 08:44:23;;;;;;;3.23;1.07;;;5.70;99.90;;;;;;5010189;28;20277;-55
2023/04/03 08:47:24;;;;;;;2.40;0.60;;;5.60;99.90;;;;;;5015956;28;20449;-61
2023/04/03 08:49:54;;;;;;;2.07;0.83;;;5.70;99.90;;;;;;5006023;28;20219;-54
2023/04/03 08:52:28;;;;;;;1.47;0.63;;;5.80;99.90;;;;;;5015170;28;20196;-55
2023/04/03 08:55:00;;;;;;;3.23;1.13;;;5.90;99.90;;;;;;4987584;28;20204;-56
2023/04/03 08:57:31;;;;;;;2.07;0.70;;;6.10;99.90;;;;;;5000889;28;20254;-58
2023/04/03 09:00:02;;;;;;;2.33;0.53;;;6.20;99.90;;;;;;5021279;28;20273;-58
2023/04/03 09:02:35;;;;;;;1.60;0.73;;;6.30;99.90;;;;;;5015242;28;20277;-55
2023/04/03 09:05:06;;;;;;;1.30;0.57;;;6.40;99.90;;;;;;4995764;28;20208;-58
2023/04/03 09:07:40;;;;;;;1.50;0.70;;;6.30;99.90;;;;;;4999074;28;20185;-58
2023/04/03 09:10:11;;;;;;;2.30;0.63;;;6.10;99.90;;;;;;4993552;28;20278;-58
2023/04/03 09:12:40;;;;;;;2.27;0.40;;;6.10;99.90;;;;;;5008095;28;20204;-53
2023/04/03 09:15:14;;;;;;;2.10;0.53;;;6.10;99.90;;;;;;5011058;28;20208;-58
2023/04/03 09:17:54;;;;;;;1.20;0.50;;;6.20;99.90;;;;;;5013762;28;20624;-55
2023/04/03 09:20:25;;;;;;;1.73;0.67;;;6.30;99.90;;;;;;5000103;28;20709;-58
2023/04/03 09:22:54;;;;;;;1.83;0.50;;;6.10;99.90;;;;;;5006472;28;20238;-56
2023/04/03 09:25:24;;;;;;;3.10;0.57;;;6.10;99.90;;;;;;4999658;28;20203;-55
2023/04/03 09:27:52;;;;;;;2.80;1.20;;;6.20;99.90;;;;;;5001037;28;20218;-58
2023/04/03 09:30:21;;;;;;;1.17;0.50;;;6.40;99.90;;;;;;5007787;28;20216;-57
2023/04/03 09:32:51;;;;;;;1.73;0.70;;;6.50;99.90;;;;;;5009831;28;20196;-59
2023/04/03 09:35:23;;;;;;;1.70;0.60;;;6.40;99.90;;;;;;5008030;28;20230;-57
2023/04/03 09:37:52;;;;;;;1.03;0.50;;;6.20;99.50;;;;;;5007918;28;20199;-58
2023/04/03 09:40:38;;;;;;;3.50;0.53;;;6.20;99.90;;;;;;4993433;28;20630;-59
2023/04/03 09:43:22;;;;;;;0.50;0.43;;;6.30;99.30;;;;;;5010325;28;20328;-55
2023/04/03 09:45:51;;;;;;;1.57;0.50;;;6.20;99.90;;;;;;5000449;28;20204;-56
2023/04/03 09:48:23;;;;;;;1.23;0.60;;;6.30;99.90;;;;;;5014477;28;20196;-58
2023/04/03 09:50:58;;;;;;;2.73;0.50;;;6.50;99.90;;;;;;5006328;28;20227;-58
2023/04/03 09:53:31;;;;;;;0.77;0.47;;;6.50;99.90;;;;;;5009731;28;20196;-55
2023/04/03 09:55:58;;;;;;;0.27;0.27;;;6.60;99.60;;;;;;4992476;28;21132;-57
2023/04/03 09:58:28;;;;;;;1.20;0.60;;;6.50;99.90;;;;;;5016255;28;20753;-56
2023/04/03 10:00:56;;;;;;;1.17;0.43;;;6.60;99.90;;;;;;5008740;28;20215;-56
2023/04/03 10:03:28;;;;;;;2.77;0.70;;;6.60;99.40;;;;;;5020506;28;20235;-54
2023/04/03 10:06:24;;;;;;;0.67;0.40;;;6.60;99.00;;;;;;5015195;28;20309;-55
2023/04/03 10:09:19;;;;;;;0.80;0.40;;;6.60;99.40;;;;;;5014085;28;20235;-57
2023/04/03 10:12:01;;;;;;;1.23;0.60;;;6.60;97.50;;;;;;4997542;28;20199;-57
2023/04/03 10:14:29;;;;;;;1.50;0.80;;;6.60;97.00;;;;;;5013609;28;20208;-53
2023/04/03 10:17:05;;;;;;;1.87;0.60;;;6.60;98.60;;;;;;5021470;28;20211;-55
2023/04/03 10:19:42;;;;;;;1.87;0.40;;;6.90;98.60;;;;;;5007625;28;20844;-53
2023/04/03 10:22:19;;;;;;;1.53;0.50;;;7.10;98.10;;;;;;5023649;28;20215;-58
2023/04/03 10:25:00;;;;;;;1.33;0.60;;;7.10;97.60;;;;;;4996956;28;20200;-58
2023/04/03 10:27:36;;;;;;;4.53;0.77;;;7.10;97.00;;;;;;5004070;28;20214;-54
2023/04/03 10:30:15;;;;;;;0.63;0.60;;;7.00;96.50;;;;;;5009290;28;20237;-56
2023/04/03 10:32:54;;;;;;;2.30;0.70;;;7.00;97.40;;;;;;5010971;28;20654;-56
2023/04/03 10:35:37;;;;;;;1.77;0.53;;;7.00;96.20;;;;;;5025644;28;20323;-57
2023/04/03 10:38:10;;;;;;;2.27;0.60;;;7.00;94.00;;;;;;5014032;28;20192;-54
2023/04/03 10:40:45;;;;;;;1.40;0.60;;;6.90;96.50;;;;;;5011936;28;20315;-58
2023/04/03 10:43:22;;;;;;;1.00;0.80;;;7.00;95.40;;;;;;4982768;28;20473;-52
2023/04/03 10:46:01;;;;;;;1.33;0.60;;;7.00;95.40;;;;;;5010449;28;20207;-55
2023/04/03 10:48:42;;;;;;;2.10;0.70;;;7.20;95.50;;;;;;5018091;28;20191;-55
2023/04/03 10:51:23;;;;;;;2.80;0.80;;;7.30;95.60;;;;;;5013959;28;20726;-54
2023/04/03 10:53:56;;;;;;;2.53;0.60;;;7.40;94.70;;;;;;5010314;28;20215;-50
2023/04/03 10:56:31;;;;;;;1.47;0.70;;;7.40;95.20;;;;;;5000921;28;20212;-52
2023/04/03 10:59:06;;;;;;;2.37;0.80;;;7.50;94.50;;;;;;4998869;28;20258;-54
2023/04/03 11:01:38;;;;;;;2.87;0.80;;;7.60;94.80;;;;;;5008533;28;21760;-56
2023/04/03 11:04:07;;;;;;;2.07;0.60;;;7.70;94.60;;;;;;5017658;28;20216;-54
2023/04/03 11:06:41;;;;;;;1.43;0.67;;;7.60;99.90;;;;;;5014274;28;20422;-54
2023/04/03 11:09:19;;;;;;;2.03;0.60;;;7.60;97.80;;;;;;5006227;28;20231;-57
2023/04/03 11:11:49;;;;;;;1.57;0.60;;;7.90;99.90;;;;;;5016465;28;20191;-55
2023/04/03 11:14:23;;;;;;;1.07;0.47;;;7.70;99.90;;;;;;4998215;28;20200;-54
2023/04/03 11:16:58;;;;;;;3.60;0.80;;;7.80;99.90;;;;;;5004019;28;20215;-61
2023/04/03 11:19:34;;;;;;;3.50;0.77;;;7.80;99.90;;;;;;5013764;28;20226;-58
2023/04/03 11:22:11;;;;;;;1.13;0.50;;;7.90;99.90;;;;;;5020608;28;21040;-57
2023/04/03 11:24:42;;;;;;;2.20;0.60;;;8.00;99.70;;;;;;5008010;28;21009;-54
2023/04/03 11:27:18;;;;;;;0.70;0.43;;;8.40;99.90;;;;;;5021784;28;20286;-56
2023/04/03 11:29:47;;;;;;;1.13;0.50;;;8.20;99.90;;;;;;4992274;28;20215;-52
2023/04/03 11:32:30;;;;;;;4.63;0.90;;;8.20;99.90;;;;;;4993233;28;20211;-58
2023/04/03 11:35:00;;;;;;;1.97;1.00;;;8.50;99.90;;;;;;5008928;28;20199;-55
2023/04/03 11:37:34;;;;;;;3.47;0.70;;;8.50;94.30;;;;;;5019292;28;20267;-58
2023/04/03 11:40:04;;;;;;;1.73;0.50;;;8.40;94.10;;;;;;4996809;28;20223;-59
2023/04/03 11:42:37;;;;;;;1.33;0.80;;;8.20;94.50;;;;;;5013525;28;20215;-53
2023/04/03 11:45:36;;;;;;;1.47;0.50;;;7.90;94.00;;;;;;4989491;28;20220;-57
2023/04/03 11:48:06;;;;;;;3.03;0.67;;;7.80;94.00;;;;;;4983490;28;20205;-56
2023/04/03 11:50:45;;;;;;;1.20;0.60;;;7.70;95.50;;;;;;5009467;28;20289;-56
2023/04/03 11:53:34;;;;;;;2.63;0.53;;;7.70;95.00;;;;;;5022704;28;20191;-53
2023/04/03 11:56:27;;;;;;;0.97;0.70;;;7.60;94.00;;;;;;4996988;28;20214;-56
2023/04/03 11:59:22;;;;;;;1.73;0.40;;;7.50;94.70;;;;;;5017240;28;20278;-59
2023/04/03 12:01:50;;;;;;;1.53;0.70;;;7.40;93.40;;;;;;4996669;28;20208;-52
2023/04/03 12:04:20;;;;;;;1.13;0.50;;;7.50;94.40;;;;;;5014995;28;20262;-58
2023/04/03 12:07:23;;;;;;;1.33;0.50;;;7.70;94.30;;;;;;5008572;28;20208;-56
2023/04/03 12:10:00;;;;;;;0.87;0.43;;;8.10;93.80;;;;;;5010457;28;20285;-55
2023/04/03 12:12:39;;;;;;;1.77;0.70;;;8.40;93.70;;;;;;5002709;28;20261;-55
2023/04/03 12:15:24;;;;;;;1.80;0.80;;;8.70;99.90;;;;;;5021117;28;20954;-57
2023/04/03 12:17:52;;;;;;;2.40;0.70;;;9.00;99.90;;;;;;4995193;28;20295;-55
2023/04/03 12:20:56;;;;;;;1.40;0.70;;;8.80;99.90;;;;;;5009647;28;20339;-58
2023/04/03 12:23:27;;;;;;;1.43;0.60;;;8.50;99.90;;;;;;5019219;28;20726;-58
2023/04/03 12:26:04;;;;;;;1.37;0.57;;;8.40;99.90;;;;;;5010146;28;20204;-59
2023/04/03 12:28:38;;;;;;;3.00;0.60;;;8.10;99.90;;;;;;5012238;28;20273;-60
2023/04/03 12:31:10;;;;;;;5.07;0.77;;;8.00;99.90;;;;;;5016222;28;21000;-56
2023/04/03 12:33:57;;;;;;;2.40;0.70;;;7.90;99.90;;;;;;4998844;28;20573;-58
2023/04/03 12:36:31;;;;;;;2.07;0.77;;;7.90;99.90;;;;;;5019088;28;20231;-49
2023/04/03 12:39:18;;;;;;;2.63;0.80;;;7.80;99.90;;;;;;5024575;28;20203;-50
2023/04/03 12:41:54;;;;;;;4.43;0.90;;;7.70;99.90;;;;;;5003770;28;20203;-60
2023/04/03 12:44:44;;;;;;;1.97;0.67;;;7.60;99.90;;;;;;5003261;28;20216;-52
2023/04/03 12:47:25;;;;;;;1.00;0.73;;;7.40;99.90;;;;;;4998481;28;20277;-50
2023/04/03 12:49:52;;;;;;;0.50;0.40;;;7.60;99.90;;;;;;5009241;28;20273;-60
2023/04/03 12:52:27;;;;;;;2.03;0.70;;;7.40;99.90;;;;;;5020443;28;20218;-55
2023/04/03 12:54:54;;;;;;;5.37;1.23;;;7.50;99.90;;;;;;5006411;28;20186;-58
2023/04/03 12:57:26;;;;;;;4.27;0.83;;;7.70;99.90;;;;;;4999238;28;20327;-50
2023/04/03 12:59:53;;;;;;;2.83;0.70;;;7.80;99.90;;;;;;5009059;28;20219;-60
2023/04/03 13:02:27;;;;;;;1.23;0.50;;;7.90;99.90;;;;;;5002654;28;20211;-56
2023/04/03 13:04:58;;;;;;;2.87;0.70;;;8.00;99.90;;;;;;5005491;28;20226;-51
2023/04/03 13:07:30;;;;;;;1.53;0.53;;;8.10;99.90;;;;;;5014552;28;20196;-55
2023/04/03 13:10:03;;;;;;;1.83;0.60;;;8.40;99.90;;;;;;5016504;28;20208;-49
2023/04/03 13:12:31;;;;;;;3.07;0.70;;;8.70;99.90;;;;;;4997630;28;20683;-53
2023/04/03 13:15:01;;;;;;;1.43;0.50;;;9.00;99.90;;;;;;5020620;28;20184;-49